sensor_id;sensor_type;location;lat;lon;timestamp;P1;durP1;ratioP1;P2;durP2;ratioP2
10303;SDS011;5197;48.152;8.590;2023-07-29T00:01:31;2.87;;;2.50;;
10303;SDS011;5197;48.152;8.590;2023-07-29T00:04:00;2.47;;;2.30;;
10303;SDS011;5197;48.152;8.590;2023-07-29T00:06:27;3.73;;;2.93;;
10303;SDS011;5197;48.152;8.590;2023-07-29T00:08:54;3.17;;;2.87;;
10303;SDS011;5197;48.152;8.590;2023-07-29T00:11:21;2.70;;;2.50;;
10303;SDS011;5197;48.152;8.590;2023-07-29T00:13:47;5.00;;;2.53;;
10303;SDS011;5197;48.152;8.590;2023-07-29T00:16:16;2.87;;;2.63;;
10303;SDS011;5197;48.152;8.590;2023-07-29T00:18:43;3.17;;;2.70;;
10303;SDS011;5197;48.152;8.590;2023-07-29T00:21:10;4.67;;;2.87;;
10303;SDS011;5197;48.152;8.590;2023-07-29T00:23:37;3.10;;;2.80;;
10303;SDS011;5197;48.152;8.590;2023-07-29T00:26:04;3.63;;;2.87;;
10303;SDS011;5197;48.152;8.590;2023-07-29T00:28:31;7.43;;;3.03;;
10303;SDS011;5197;48.152;8.590;2023-07-29T00:30:58;3.50;;;3.20;;
10303;SDS011;5197;48.152;8.590;2023-07-29T00:33:25;4.80;;;2.70;;
10303;SDS011;5197;48.152;8.590;2023-07-29T00:35:52;3.27;;;2.80;;
10303;SDS011;5197;48.152;8.590;2023-07-29T00:38:19;3.20;;;2.77;;
10303;SDS011;5197;48.152;8.590;2023-07-29T00:40:46;5.60;;;3.10;;
10303;SDS011;5197;48.152;8.590;2023-07-29T00:43:13;5.80;;;3.40;;
10303;SDS011;5197;48.152;8.590;2023-07-29T00:45:40;3.50;;;3.20;;
10303;SDS011;5197;48.152;8.590;2023-07-29T00:48:10;4.70;;;3.20;;
10303;SDS011;5197;48.152;8.590;2023-07-29T00:50:37;3.80;;;3.20;;
10303;SDS011;5197;48.152;8.590;2023-07-29T00:53:04;3.97;;;2.73;;
10303;SDS011;5197;48.152;8.590;2023-07-29T00:55:31;5.13;;;3.00;;
10303;SDS011;5197;48.152;8.590;2023-07-29T00:57:58;3.40;;;3.10;;
10303;SDS011;5197;48.152;8.590;2023-07-29T01:00:26;4.10;;;3.00;;
10303;SDS011;5197;48.152;8.590;2023-07-29T01:02:53;4.70;;;3.10;;
10303;SDS011;5197;48.152;8.590;2023-07-29T01:05:21;3.20;;;2.87;;
10303;SDS011;5197;48.152;8.590;2023-07-29T01:08:03;3.97;;;3.23;;
10303;SDS011;5197;48.152;8.590;2023-07-29T01:13:22;3.70;;;3.13;;
10303;SDS011;5197;48.152;8.590;2023-07-29T01:16:39;3.43;;;3.10;;
10303;SDS011;5197;48.152;8.590;2023-07-29T01:19:11;5.33;;;3.00;;
10303;SDS011;5197;48.152;8.590;2023-07-29T01:21:51;3.50;;;3.10;;
10303;SDS011;5197;48.152;8.590;2023-07-29T01:24:18;7.63;;;4.03;;
10303;SDS011;5197;48.152;8.590;2023-07-29T01:26:45;6.60;;;3.40;;
10303;SDS011;5197;48.152;8.590;2023-07-29T01:29:11;5.00;;;3.50;;
10303;SDS011;5197;48.152;8.590;2023-07-29T01:31:40;7.43;;;3.87;;
10303;SDS011;5197;48.152;8.590;2023-07-29T01:34:18;4.77;;;3.30;;
10303;SDS011;5197;48.152;8.590;2023-07-29T01:36:52;7.53;;;3.23;;
10303;SDS011;5197;48.152;8.590;2023-07-29T01:39:27;3.93;;;3.53;;
10303;SDS011;5197;48.152;8.590;2023-07-29T01:41:58;5.30;;;3.17;;
10303;SDS011;5197;48.152;8.590;2023-07-29T01:44:25;5.03;;;3.60;;
10303;SDS011;5197;48.152;8.590;2023-07-29T01:46:54;7.83;;;3.70;;
10303;SDS011;5197;48.152;8.590;2023-07-29T01:49:22;5.70;;;3.47;;
10303;SDS011;5197;48.152;8.590;2023-07-29T01:51:49;3.50;;;3.17;;
10303;SDS011;5197;48.152;8.590;2023-07-29T01:54:15;3.90;;;3.60;;
10303;SDS011;5197;48.152;8.590;2023-07-29T01:56:42;3.70;;;3.40;;
10303;SDS011;5197;48.152;8.590;2023-07-29T01:59:09;4.00;;;3.20;;
10303;SDS011;5197;48.152;8.590;2023-07-29T02:01:36;8.20;;;3.90;;
10303;SDS011;5197;48.152;8.590;2023-07-29T02:04:03;3.80;;;3.50;;
10303;SDS011;5197;48.152;8.590;2023-07-29T02:06:30;3.93;;;3.60;;
10303;SDS011;5197;48.152;8.590;2023-07-29T02:08:57;3.93;;;3.47;;
10303;SDS011;5197;48.152;8.590;2023-07-29T02:11:24;5.03;;;3.83;;
10303;SDS011;5197;48.152;8.590;2023-07-29T02:13:54;4.00;;;3.60;;
10303;SDS011;5197;48.152;8.590;2023-07-29T02:16:21;3.70;;;3.40;;
10303;SDS011;5197;48.152;8.590;2023-07-29T02:18:49;6.23;;;3.90;;
10303;SDS011;5197;48.152;8.590;2023-07-29T02:21:18;4.47;;;3.83;;
10303;SDS011;5197;48.152;8.590;2023-07-29T02:23:45;5.17;;;3.60;;
10303;SDS011;5197;48.152;8.590;2023-07-29T02:26:12;6.03;;;4.40;;
10303;SDS011;5197;48.152;8.590;2023-07-29T02:28:39;4.50;;;4.10;;
10303;SDS011;5197;48.152;8.590;2023-07-29T02:31:09;7.00;;;4.00;;
10303;SDS011;5197;48.152;8.590;2023-07-29T02:33:44;4.53;;;4.07;;
10303;SDS011;5197;48.152;8.590;2023-07-29T02:36:11;4.77;;;3.87;;
10303;SDS011;5197;48.152;8.590;2023-07-29T02:38:42;6.17;;;4.27;;
10303;SDS011;5197;48.152;8.590;2023-07-29T02:41:09;3.93;;;3.67;;
10303;SDS011;5197;48.152;8.590;2023-07-29T02:43:38;4.80;;;4.33;;
10303;SDS011;5197;48.152;8.590;2023-07-29T02:46:07;4.93;;;4.43;;
10303;SDS011;5197;48.152;8.590;2023-07-29T02:48:34;4.87;;;4.47;;
10303;SDS011;5197;48.152;8.590;2023-07-29T02:51:01;4.90;;;4.40;;
10303;SDS011;5197;48.152;8.590;2023-07-29T02:53:28;7.63;;;4.80;;
10303;SDS011;5197;48.152;8.590;2023-07-29T02:55:55;4.90;;;4.50;;
10303;SDS011;5197;48.152;8.590;2023-07-29T02:58:21;4.50;;;4.20;;
10303;SDS011;5197;48.152;8.590;2023-07-29T03:00:48;5.00;;;4.07;;
10303;SDS011;5197;48.152;8.590;2023-07-29T03:03:16;4.83;;;4.30;;
10303;SDS011;5197;48.152;8.590;2023-07-29T03:05:43;4.93;;;4.40;;
10303;SDS011;5197;48.152;8.590;2023-07-29T03:08:10;4.87;;;4.40;;
10303;SDS011;5197;48.152;8.590;2023-07-29T03:10:37;6.73;;;4.20;;
10303;SDS011;5197;48.152;8.590;2023-07-29T03:13:04;8.37;;;4.43;;
10303;SDS011;5197;48.152;8.590;2023-07-29T03:15:31;5.50;;;4.47;;
10303;SDS011;5197;48.152;8.590;2023-07-29T03:18:00;5.50;;;4.33;;
10303;SDS011;5197;48.152;8.590;2023-07-29T03:20:27;6.63;;;4.23;;
10303;SDS011;5197;48.152;8.590;2023-07-29T03:22:54;9.83;;;4.53;;
10303;SDS011;5197;48.152;8.590;2023-07-29T03:25:21;5.23;;;4.33;;
10303;SDS011;5197;48.152;8.590;2023-07-29T03:27:48;5.70;;;4.57;;
10303;SDS011;5197;48.152;8.590;2023-07-29T03:30:19;4.90;;;4.40;;
10303;SDS011;5197;48.152;8.590;2023-07-29T03:32:47;4.90;;;4.50;;
10303;SDS011;5197;48.152;8.590;2023-07-29T03:35:15;6.60;;;5.93;;
10303;SDS011;5197;48.152;8.590;2023-07-29T03:37:43;7.30;;;5.33;;
10303;SDS011;5197;48.152;8.590;2023-07-29T03:40:10;7.33;;;5.60;;
10303;SDS011;5197;48.152;8.590;2023-07-29T03:42:37;7.00;;;5.30;;
10303;SDS011;5197;48.152;8.590;2023-07-29T03:45:04;5.50;;;5.03;;
10303;SDS011;5197;48.152;8.590;2023-07-29T03:47:31;5.13;;;4.17;;
10303;SDS011;5197;48.152;8.590;2023-07-29T03:49:58;3.47;;;3.27;;
10303;SDS011;5197;48.152;8.590;2023-07-29T03:52:25;7.17;;;4.30;;
10303;SDS011;5197;48.152;8.590;2023-07-29T03:54:52;4.27;;;3.87;;
10303;SDS011;5197;48.152;8.590;2023-07-29T03:57:19;4.03;;;3.73;;
10303;SDS011;5197;48.152;8.590;2023-07-29T03:59:46;5.40;;;4.13;;
10303;SDS011;5197;48.152;8.590;2023-07-29T04:02:13;6.27;;;3.60;;
10303;SDS011;5197;48.152;8.590;2023-07-29T04:04:40;4.50;;;3.67;;
10303;SDS011;5197;48.152;8.590;2023-07-29T04:07:09;3.53;;;3.23;;
10303;SDS011;5197;48.152;8.590;2023-07-29T04:09:36;4.20;;;2.90;;
10303;SDS011;5197;48.152;8.590;2023-07-29T04:12:03;5.53;;;3.43;;
10303;SDS011;5197;48.152;8.590;2023-07-29T04:14:30;3.43;;;3.10;;
10303;SDS011;5197;48.152;8.590;2023-07-29T04:16:57;3.50;;;3.20;;
10303;SDS011;5197;48.152;8.590;2023-07-29T04:19:24;3.50;;;3.20;;
10303;SDS011;5197;48.152;8.590;2023-07-29T04:21:51;3.10;;;2.90;;
10303;SDS011;5197;48.152;8.590;2023-07-29T04:24:18;6.77;;;3.30;;
10303;SDS011;5197;48.152;8.590;2023-07-29T04:26:46;4.20;;;3.20;;
10303;SDS011;5197;48.152;8.590;2023-07-29T04:29:13;4.73;;;3.10;;
10303;SDS011;5197;48.152;8.590;2023-07-29T04:31:40;5.37;;;3.47;;
10303;SDS011;5197;48.152;8.590;2023-07-29T04:34:07;4.77;;;3.47;;
10303;SDS011;5197;48.152;8.590;2023-07-29T04:36:34;3.30;;;3.00;;
10303;SDS011;5197;48.152;8.590;2023-07-29T04:39:02;3.17;;;2.97;;
10303;SDS011;5197;48.152;8.590;2023-07-29T04:41:29;2.90;;;2.70;;
10303;SDS011;5197;48.152;8.590;2023-07-29T04:43:56;3.57;;;2.70;;
10303;SDS011;5197;48.152;8.590;2023-07-29T04:46:23;3.10;;;2.80;;
10303;SDS011;5197;48.152;8.590;2023-07-29T04:48:49;2.93;;;2.73;;
10303;SDS011;5197;48.152;8.590;2023-07-29T04:51:16;5.37;;;2.60;;
10303;SDS011;5197;48.152;8.590;2023-07-29T04:53:44;3.40;;;2.53;;
10303;SDS011;5197;48.152;8.590;2023-07-29T04:56:10;3.07;;;2.77;;
10303;SDS011;5197;48.152;8.590;2023-07-29T04:58:37;2.80;;;2.50;;
10303;SDS011;5197;48.152;8.590;2023-07-29T05:01:04;2.80;;;2.60;;
10303;SDS011;5197;48.152;8.590;2023-07-29T05:03:32;2.73;;;2.60;;
10303;SDS011;5197;48.152;8.590;2023-07-29T05:05:59;2.63;;;2.40;;
10303;SDS011;5197;48.152;8.590;2023-07-29T05:08:26;2.97;;;2.80;;
10303;SDS011;5197;48.152;8.590;2023-07-29T05:10:53;2.90;;;2.70;;
10303;SDS011;5197;48.152;8.590;2023-07-29T05:13:20;2.97;;;2.70;;
10303;SDS011;5197;48.152;8.590;2023-07-29T05:15:48;3.00;;;2.80;;
10303;SDS011;5197;48.152;8.590;2023-07-29T05:18:16;3.30;;;3.10;;
10303;SDS011;5197;48.152;8.590;2023-07-29T05:20:43;3.17;;;2.87;;
10303;SDS011;5197;48.152;8.590;2023-07-29T05:23:10;3.23;;;2.53;;
10303;SDS011;5197;48.152;8.590;2023-07-29T05:25:37;4.00;;;2.43;;
10303;SDS011;5197;48.152;8.590;2023-07-29T05:28:04;3.10;;;2.67;;
10303;SDS011;5197;48.152;8.590;2023-07-29T05:30:32;3.10;;;2.83;;
10303;SDS011;5197;48.152;8.590;2023-07-29T05:33:03;3.10;;;2.80;;
10303;SDS011;5197;48.152;8.590;2023-07-29T05:35:31;5.33;;;2.60;;
10303;SDS011;5197;48.152;8.590;2023-07-29T05:37:58;2.67;;;2.47;;
10303;SDS011;5197;48.152;8.590;2023-07-29T05:40:25;3.90;;;2.30;;
10303;SDS011;5197;48.152;8.590;2023-07-29T05:42:52;4.27;;;2.70;;
10303;SDS011;5197;48.152;8.590;2023-07-29T05:45:19;3.03;;;2.83;;
10303;SDS011;5197;48.152;8.590;2023-07-29T05:47:46;3.97;;;2.53;;
10303;SDS011;5197;48.152;8.590;2023-07-29T05:50:13;2.93;;;2.73;;
10303;SDS011;5197;48.152;8.590;2023-07-29T05:52:41;3.47;;;2.90;;
10303;SDS011;5197;48.152;8.590;2023-07-29T05:55:08;2.77;;;2.57;;
10303;SDS011;5197;48.152;8.590;2023-07-29T05:57:35;2.53;;;2.40;;
10303;SDS011;5197;48.152;8.590;2023-07-29T06:00:01;4.53;;;2.73;;
10303;SDS011;5197;48.152;8.590;2023-07-29T06:02:29;4.07;;;2.50;;
10303;SDS011;5197;48.152;8.590;2023-07-29T06:04:56;3.25;;;3.05;;
10303;SDS011;5197;48.152;8.590;2023-07-29T06:07:22;4.20;;;2.80;;
10303;SDS011;5197;48.152;8.590;2023-07-29T06:09:50;3.75;;;2.72;;
10303;SDS011;5197;48.152;8.590;2023-07-29T06:12:16;3.37;;;3.07;;
10303;SDS011;5197;48.152;8.590;2023-07-29T06:14:43;4.78;;;3.00;;
10303;SDS011;5197;48.152;8.590;2023-07-29T06:17:10;4.55;;;2.97;;
10303;SDS011;5197;48.152;8.590;2023-07-29T06:19:38;4.85;;;2.75;;
10303;SDS011;5197;48.152;8.590;2023-07-29T06:22:05;6.75;;;2.80;;
10303;SDS011;5197;48.152;8.590;2023-07-29T06:24:32;4.72;;;3.17;;
10303;SDS011;5197;48.152;8.590;2023-07-29T06:26:59;7.22;;;2.70;;
10303;SDS011;5197;48.152;8.590;2023-07-29T06:29:26;2.92;;;2.72;;
10303;SDS011;5197;48.152;8.590;2023-07-29T06:31:53;5.82;;;2.97;;
10303;SDS011;5197;48.152;8.590;2023-07-29T06:34:20;3.35;;;3.05;;
10303;SDS011;5197;48.152;8.590;2023-07-29T06:36:49;3.55;;;2.72;;
10303;SDS011;5197;48.152;8.590;2023-07-29T06:39:16;3.83;;;2.88;;
10303;SDS011;5197;48.152;8.590;2023-07-29T06:41:43;8.70;;;2.90;;
10303;SDS011;5197;48.152;8.590;2023-07-29T06:44:10;4.25;;;2.70;;
10303;SDS011;5197;48.152;8.590;2023-07-29T06:46:37;2.55;;;2.45;;
10303;SDS011;5197;48.152;8.590;2023-07-29T06:49:05;3.85;;;2.53;;
10303;SDS011;5197;48.152;8.590;2023-07-29T06:51:32;2.85;;;2.70;;
10303;SDS011;5197;48.152;8.590;2023-07-29T06:54:01;3.33;;;2.50;;
10303;SDS011;5197;48.152;8.590;2023-07-29T06:56:29;3.22;;;3.03;;
10303;SDS011;5197;48.152;8.590;2023-07-29T06:58:56;2.90;;;2.58;;
10303;SDS011;5197;48.152;8.590;2023-07-29T07:01:22;4.55;;;2.58;;
10303;SDS011;5197;48.152;8.590;2023-07-29T07:03:49;2.60;;;2.40;;
10303;SDS011;5197;48.152;8.590;2023-07-29T07:06:16;2.92;;;2.70;;
10303;SDS011;5197;48.152;8.590;2023-07-29T07:08:43;2.80;;;2.50;;
10303;SDS011;5197;48.152;8.590;2023-07-29T07:11:10;3.35;;;2.72;;
10303;SDS011;5197;48.152;8.590;2023-07-29T07:13:37;2.80;;;2.60;;
10303;SDS011;5197;48.152;8.590;2023-07-29T07:16:04;2.70;;;2.50;;
10303;SDS011;5197;48.152;8.590;2023-07-29T07:18:31;2.65;;;2.50;;
10303;SDS011;5197;48.152;8.590;2023-07-29T07:20:58;3.45;;;2.50;;
10303;SDS011;5197;48.152;8.590;2023-07-29T07:23:24;3.30;;;2.60;;
10303;SDS011;5197;48.152;8.590;2023-07-29T07:25:51;8.88;;;2.83;;
10303;SDS011;5197;48.152;8.590;2023-07-29T07:28:18;2.80;;;2.45;;
10303;SDS011;5197;48.152;8.590;2023-07-29T07:30:45;9.88;;;3.45;;
10303;SDS011;5197;48.152;8.590;2023-07-29T07:33:12;5.75;;;3.38;;
10303;SDS011;5197;48.152;8.590;2023-07-29T07:35:39;2.35;;;2.15;;
10303;SDS011;5197;48.152;8.590;2023-07-29T07:38:08;3.50;;;2.05;;
10303;SDS011;5197;48.152;8.590;2023-07-29T07:40:36;3.03;;;2.15;;
10303;SDS011;5197;48.152;8.590;2023-07-29T07:43:03;2.92;;;2.20;;
10303;SDS011;5197;48.152;8.590;2023-07-29T07:45:29;1.60;;;1.50;;
10303;SDS011;5197;48.152;8.590;2023-07-29T07:47:58;3.05;;;1.42;;
10303;SDS011;5197;48.152;8.590;2023-07-29T07:50:25;2.25;;;1.30;;
10303;SDS011;5197;48.152;8.590;2023-07-29T07:52:55;1.33;;;1.10;;
10303;SDS011;5197;48.152;8.590;2023-07-29T07:55:22;1.98;;;1.42;;
10303;SDS011;5197;48.152;8.590;2023-07-29T07:57:49;1.60;;;1.50;;
10303;SDS011;5197;48.152;8.590;2023-07-29T08:00:16;1.42;;;1.20;;
10303;SDS011;5197;48.152;8.590;2023-07-29T08:02:45;1.77;;;1.20;;
10303;SDS011;5197;48.152;8.590;2023-07-29T08:05:12;2.28;;;1.60;;
10303;SDS011;5197;48.152;8.590;2023-07-29T08:07:39;4.00;;;1.67;;
10303;SDS011;5197;48.152;8.590;2023-07-29T08:10:06;1.50;;;1.40;;
10303;SDS011;5197;48.152;8.590;2023-07-29T08:12:33;1.50;;;1.48;;
10303;SDS011;5197;48.152;8.590;2023-07-29T08:15:00;1.73;;;1.60;;
10303;SDS011;5197;48.152;8.590;2023-07-29T08:17:27;1.75;;;1.65;;
10303;SDS011;5197;48.152;8.590;2023-07-29T08:19:54;1.63;;;1.52;;
10303;SDS011;5197;48.152;8.590;2023-07-29T08:22:21;1.90;;;1.80;;
10303;SDS011;5197;48.152;8.590;2023-07-29T08:24:47;4.22;;;1.98;;
10303;SDS011;5197;48.152;8.590;2023-07-29T08:27:14;3.90;;;1.70;;
10303;SDS011;5197;48.152;8.590;2023-07-29T08:29:41;1.48;;;1.48;;
10303;SDS011;5197;48.152;8.590;2023-07-29T08:32:08;1.60;;;1.60;;
10303;SDS011;5197;48.152;8.590;2023-07-29T08:34:35;1.90;;;1.80;;
10303;SDS011;5197;48.152;8.590;2023-07-29T08:37:02;1.58;;;1.40;;
10303;SDS011;5197;48.152;8.590;2023-07-29T08:39:29;2.05;;;1.80;;
10303;SDS011;5197;48.152;8.590;2023-07-29T08:42:08;2.10;;;1.70;;
10303;SDS011;5197;48.152;8.590;2023-07-29T08:44:41;2.05;;;1.80;;
10303;SDS011;5197;48.152;8.590;2023-07-29T08:47:09;1.92;;;1.70;;
10303;SDS011;5197;48.152;8.590;2023-07-29T08:49:39;2.78;;;1.92;;
10303;SDS011;5197;48.152;8.590;2023-07-29T08:52:07;1.65;;;1.55;;
10303;SDS011;5197;48.152;8.590;2023-07-29T08:54:36;1.52;;;1.50;;
10303;SDS011;5197;48.152;8.590;2023-07-29T08:57:03;2.10;;;1.92;;
10303;SDS011;5197;48.152;8.590;2023-07-29T08:59:30;2.10;;;2.00;;
10303;SDS011;5197;48.152;8.590;2023-07-29T09:01:57;2.08;;;1.92;;
10303;SDS011;5197;48.152;8.590;2023-07-29T09:04:25;4.15;;;1.60;;
10303;SDS011;5197;48.152;8.590;2023-07-29T09:06:52;1.73;;;1.60;;
10303;SDS011;5197;48.152;8.590;2023-07-29T09:09:22;3.33;;;2.00;;
10303;SDS011;5197;48.152;8.590;2023-07-29T09:11:48;3.45;;;1.80;;
10303;SDS011;5197;48.152;8.590;2023-07-29T09:14:15;1.75;;;1.65;;
10303;SDS011;5197;48.152;8.590;2023-07-29T09:16:43;2.03;;;1.90;;
10303;SDS011;5197;48.152;8.590;2023-07-29T09:19:10;2.20;;;1.75;;
10303;SDS011;5197;48.152;8.590;2023-07-29T09:21:41;2.08;;;1.98;;
10303;SDS011;5197;48.152;8.590;2023-07-29T09:24:09;1.70;;;1.60;;
10303;SDS011;5197;48.152;8.590;2023-07-29T09:26:36;2.47;;;1.85;;
10303;SDS011;5197;48.152;8.590;2023-07-29T09:29:03;1.65;;;1.55;;
10303;SDS011;5197;48.152;8.590;2023-07-29T09:31:30;2.03;;;1.92;;
10303;SDS011;5197;48.152;8.590;2023-07-29T09:33:58;2.20;;;2.00;;
10303;SDS011;5197;48.152;8.590;2023-07-29T09:36:30;2.60;;;1.98;;
10303;SDS011;5197;48.152;8.590;2023-07-29T09:38:58;1.88;;;1.77;;
10303;SDS011;5197;48.152;8.590;2023-07-29T09:41:26;3.05;;;1.98;;
10303;SDS011;5197;48.152;8.590;2023-07-29T09:43:57;2.47;;;2.10;;
10303;SDS011;5197;48.152;8.590;2023-07-29T09:46:31;2.00;;;1.90;;
10303;SDS011;5197;48.152;8.590;2023-07-29T09:48:59;1.92;;;1.83;;
10303;SDS011;5197;48.152;8.590;2023-07-29T09:51:27;1.98;;;1.88;;
10303;SDS011;5197;48.152;8.590;2023-07-29T09:53:54;1.90;;;1.80;;
10303;SDS011;5197;48.152;8.590;2023-07-29T09:56:26;1.80;;;1.70;;
10303;SDS011;5197;48.152;8.590;2023-07-29T09:58:55;3.55;;;2.08;;
10303;SDS011;5197;48.152;8.590;2023-07-29T10:01:23;1.98;;;1.88;;
10303;SDS011;5197;48.152;8.590;2023-07-29T10:03:50;2.20;;;2.10;;
10303;SDS011;5197;48.152;8.590;2023-07-29T10:06:18;3.42;;;2.08;;
10303;SDS011;5197;48.152;8.590;2023-07-29T10:08:46;1.90;;;1.80;;
10303;SDS011;5197;48.152;8.590;2023-07-29T10:11:15;2.08;;;1.98;;
10303;SDS011;5197;48.152;8.590;2023-07-29T10:13:44;2.25;;;2.03;;
10303;SDS011;5197;48.152;8.590;2023-07-29T10:16:32;2.00;;;1.90;;
10303;SDS011;5197;48.152;8.590;2023-07-29T10:19:01;2.20;;;2.10;;
10303;SDS011;5197;48.152;8.590;2023-07-29T10:21:28;3.20;;;2.10;;
10303;SDS011;5197;48.152;8.590;2023-07-29T10:23:56;2.33;;;2.10;;
10303;SDS011;5197;48.152;8.590;2023-07-29T10:26:27;1.90;;;1.80;;
10303;SDS011;5197;48.152;8.590;2023-07-29T10:28:58;2.20;;;2.00;;
10303;SDS011;5197;48.152;8.590;2023-07-29T10:31:31;2.78;;;1.83;;
10303;SDS011;5197;48.152;8.590;2023-07-29T10:33:59;2.00;;;1.90;;
10303;SDS011;5197;48.152;8.590;2023-07-29T10:36:27;1.95;;;1.85;;
10303;SDS011;5197;48.152;8.590;2023-07-29T10:38:54;3.65;;;1.90;;
10303;SDS011;5197;48.152;8.590;2023-07-29T10:41:21;2.00;;;1.90;;
10303;SDS011;5197;48.152;8.590;2023-07-29T10:43:49;1.88;;;1.77;;
10303;SDS011;5197;48.152;8.590;2023-07-29T10:48:54;2.10;;;2.00;;
10303;SDS011;5197;48.152;8.590;2023-07-29T10:53:57;2.00;;;1.90;;
10303;SDS011;5197;48.152;8.590;2023-07-29T10:56:29;1.50;;;1.50;;
10303;SDS011;5197;48.152;8.590;2023-07-29T11:01:51;1.67;;;1.58;;
10303;SDS011;5197;48.152;8.590;2023-07-29T11:04:23;2.92;;;1.60;;
10303;SDS011;5197;48.152;8.590;2023-07-29T11:17:48;1.52;;;1.52;;
10303;SDS011;5197;48.152;8.590;2023-07-29T11:20:19;3.22;;;1.58;;
10303;SDS011;5197;48.152;8.590;2023-07-29T11:22:48;1.77;;;1.67;;
10303;SDS011;5197;48.152;8.590;2023-07-29T11:25:16;1.80;;;1.38;;
10303;SDS011;5197;48.152;8.590;2023-07-29T11:27:44;1.90;;;1.80;;
10303;SDS011;5197;48.152;8.590;2023-07-29T11:30:13;1.63;;;1.60;;
10303;SDS011;5197;48.152;8.590;2023-07-29T11:32:41;1.55;;;1.45;;
10303;SDS011;5197;48.152;8.590;2023-07-29T11:35:13;1.30;;;1.27;;
10303;SDS011;5197;48.152;8.590;2023-07-29T11:37:44;1.80;;;1.70;;
10303;SDS011;5197;48.152;8.590;2023-07-29T11:40:19;1.85;;;1.42;;
10303;SDS011;5197;48.152;8.590;2023-07-29T11:42:47;1.55;;;1.55;;
10303;SDS011;5197;48.152;8.590;2023-07-29T11:45:18;1.50;;;1.50;;
10303;SDS011;5197;48.152;8.590;2023-07-29T11:47:46;2.15;;;1.30;;
10303;SDS011;5197;48.152;8.590;2023-07-29T11:50:14;2.38;;;1.45;;
10303;SDS011;5197;48.152;8.590;2023-07-29T11:52:45;1.80;;;1.70;;
10303;SDS011;5197;48.152;8.590;2023-07-29T11:55:13;2.15;;;1.40;;
10303;SDS011;5197;48.152;8.590;2023-07-29T11:57:42;1.25;;;1.25;;
10303;SDS011;5197;48.152;8.590;2023-07-29T12:00:10;1.65;;;1.55;;
10303;SDS011;5197;48.152;8.590;2023-07-29T12:02:39;1.60;;;1.50;;
10303;SDS011;5197;48.152;8.590;2023-07-29T12:05:08;1.45;;;1.45;;
10303;SDS011;5197;48.152;8.590;2023-07-29T12:07:38;1.50;;;1.40;;
10303;SDS011;5197;48.152;8.590;2023-07-29T12:10:06;1.60;;;1.50;;
10303;SDS011;5197;48.152;8.590;2023-07-29T12:12:33;1.40;;;1.40;;
10303;SDS011;5197;48.152;8.590;2023-07-29T12:15:10;1.80;;;1.70;;
10303;SDS011;5197;48.152;8.590;2023-07-29T12:17:43;1.65;;;1.58;;
10303;SDS011;5197;48.152;8.590;2023-07-29T12:20:10;1.85;;;1.75;;
10303;SDS011;5197;48.152;8.590;2023-07-29T12:22:37;1.27;;;1.27;;
10303;SDS011;5197;48.152;8.590;2023-07-29T12:25:05;1.73;;;1.70;;
10303;SDS011;5197;48.152;8.590;2023-07-29T12:27:32;2.00;;;1.90;;
10303;SDS011;5197;48.152;8.590;2023-07-29T12:30:00;1.85;;;1.67;;
10303;SDS011;5197;48.152;8.590;2023-07-29T12:32:30;1.98;;;1.70;;
10303;SDS011;5197;48.152;8.590;2023-07-29T12:34:57;2.00;;;1.90;;
10303;SDS011;5197;48.152;8.590;2023-07-29T12:37:30;2.00;;;1.90;;
10303;SDS011;5197;48.152;8.590;2023-07-29T12:39:59;2.20;;;2.10;;
10303;SDS011;5197;48.152;8.590;2023-07-29T12:42:25;1.85;;;1.75;;
10303;SDS011;5197;48.152;8.590;2023-07-29T12:44:52;1.75;;;1.63;;
10303;SDS011;5197;48.152;8.590;2023-07-29T12:47:19;1.77;;;1.63;;
10303;SDS011;5197;48.152;8.590;2023-07-29T12:49:47;1.85;;;1.75;;
10303;SDS011;5197;48.152;8.590;2023-07-29T12:52:14;1.10;;;1.10;;
10303;SDS011;5197;48.152;8.590;2023-07-29T12:54:40;1.73;;;1.70;;
10303;SDS011;5197;48.152;8.590;2023-07-29T12:57:10;1.73;;;1.70;;
10303;SDS011;5197;48.152;8.590;2023-07-29T12:59:37;5.15;;;1.60;;
10303;SDS011;5197;48.152;8.590;2023-07-29T13:02:04;1.42;;;1.35;;
10303;SDS011;5197;48.152;8.590;2023-07-29T13:04:33;1.50;;;1.40;;
10303;SDS011;5197;48.152;8.590;2023-07-29T13:07:00;1.63;;;1.52;;
10303;SDS011;5197;48.152;8.590;2023-07-29T13:09:27;1.85;;;1.75;;
10303;SDS011;5197;48.152;8.590;2023-07-29T13:11:54;1.63;;;1.50;;
10303;SDS011;5197;48.152;8.590;2023-07-29T13:14:21;1.40;;;1.40;;
10303;SDS011;5197;48.152;8.590;2023-07-29T13:16:48;1.58;;;1.58;;
10303;SDS011;5197;48.152;8.590;2023-07-29T13:19:15;1.80;;;1.70;;
10303;SDS011;5197;48.152;8.590;2023-07-29T13:21:41;2.05;;;1.88;;
10303;SDS011;5197;48.152;8.590;2023-07-29T13:24:08;3.22;;;1.73;;
10303;SDS011;5197;48.152;8.590;2023-07-29T13:26:35;1.95;;;1.30;;
10303;SDS011;5197;48.152;8.590;2023-07-29T13:29:02;1.52;;;1.52;;
10303;SDS011;5197;48.152;8.590;2023-07-29T13:31:34;1.40;;;1.40;;
10303;SDS011;5197;48.152;8.590;2023-07-29T13:34:01;1.60;;;1.50;;
10303;SDS011;5197;48.152;8.590;2023-07-29T13:36:27;1.52;;;1.42;;
10303;SDS011;5197;48.152;8.590;2023-07-29T13:38:54;1.63;;;1.50;;
10303;SDS011;5197;48.152;8.590;2023-07-29T13:41:21;1.52;;;1.52;;
10303;SDS011;5197;48.152;8.590;2023-07-29T13:43:48;1.60;;;1.50;;
10303;SDS011;5197;48.152;8.590;2023-07-29T13:46:14;1.70;;;1.60;;
10303;SDS011;5197;48.152;8.590;2023-07-29T13:48:41;1.67;;;1.60;;
10303;SDS011;5197;48.152;8.590;2023-07-29T13:51:08;3.17;;;1.60;;
10303;SDS011;5197;48.152;8.590;2023-07-29T13:53:35;2.17;;;1.55;;
10303;SDS011;5197;48.152;8.590;2023-07-29T13:56:02;1.67;;;1.58;;
10303;SDS011;5197;48.152;8.590;2023-07-29T13:58:28;1.80;;;1.70;;
10303;SDS011;5197;48.152;8.590;2023-07-29T14:00:55;2.63;;;1.80;;
10303;SDS011;5197;48.152;8.590;2023-07-29T14:03:25;1.73;;;1.63;;
10303;SDS011;5197;48.152;8.590;2023-07-29T14:05:52;1.83;;;1.73;;
10303;SDS011;5197;48.152;8.590;2023-07-29T14:08:19;1.90;;;1.80;;
10303;SDS011;5197;48.152;8.590;2023-07-29T14:10:46;1.55;;;1.55;;
10303;SDS011;5197;48.152;8.590;2023-07-29T14:13:13;1.77;;;1.67;;
10303;SDS011;5197;48.152;8.590;2023-07-29T14:15:40;1.85;;;1.70;;
10303;SDS011;5197;48.152;8.590;2023-07-29T14:18:06;1.65;;;1.65;;
10303;SDS011;5197;48.152;8.590;2023-07-29T14:20:34;1.60;;;1.50;;
10303;SDS011;5197;48.152;8.590;2023-07-29T14:23:01;1.80;;;1.70;;
10303;SDS011;5197;48.152;8.590;2023-07-29T14:25:28;1.90;;;1.77;;
10303;SDS011;5197;48.152;8.590;2023-07-29T14:27:56;1.30;;;1.30;;
10303;SDS011;5197;48.152;8.590;2023-07-29T14:30:23;1.30;;;1.30;;
10303;SDS011;5197;48.152;8.590;2023-07-29T14:32:50;2.00;;;1.80;;
10303;SDS011;5197;48.152;8.590;2023-07-29T14:35:17;1.55;;;1.55;;
10303;SDS011;5197;48.152;8.590;2023-07-29T14:37:44;1.80;;;1.70;;
10303;SDS011;5197;48.152;8.590;2023-07-29T14:40:11;1.70;;;1.50;;
10303;SDS011;5197;48.152;8.590;2023-07-29T14:42:38;1.67;;;1.58;;
10303;SDS011;5197;48.152;8.590;2023-07-29T14:45:05;1.60;;;1.60;;
10303;SDS011;5197;48.152;8.590;2023-07-29T14:47:32;2.80;;;1.63;;
10303;SDS011;5197;48.152;8.590;2023-07-29T14:50:01;1.80;;;1.70;;
10303;SDS011;5197;48.152;8.590;2023-07-29T14:52:28;1.77;;;1.67;;
10303;SDS011;5197;48.152;8.590;2023-07-29T14:54:55;1.60;;;1.60;;
10303;SDS011;5197;48.152;8.590;2023-07-29T14:57:22;2.08;;;1.55;;
10303;SDS011;5197;48.152;8.590;2023-07-29T14:59:49;1.98;;;1.88;;
10303;SDS011;5197;48.152;8.590;2023-07-29T15:02:16;1.67;;;1.60;;
10303;SDS011;5197;48.152;8.590;2023-07-29T15:04:44;1.95;;;1.50;;
10303;SDS011;5197;48.152;8.590;2023-07-29T15:07:10;2.38;;;1.77;;
10303;SDS011;5197;48.152;8.590;2023-07-29T15:09:37;1.80;;;1.70;;
10303;SDS011;5197;48.152;8.590;2023-07-29T15:12:04;2.05;;;1.90;;
10303;SDS011;5197;48.152;8.590;2023-07-29T15:14:31;2.00;;;1.90;;
10303;SDS011;5197;48.152;8.590;2023-07-29T15:16:58;1.90;;;1.80;;
10303;SDS011;5197;48.152;8.590;2023-07-29T15:19:25;1.95;;;1.80;;
10303;SDS011;5197;48.152;8.590;2023-07-29T15:21:52;4.13;;;2.20;;
10303;SDS011;5197;48.152;8.590;2023-07-29T15:24:18;1.60;;;1.60;;
10303;SDS011;5197;48.152;8.590;2023-07-29T15:26:45;2.00;;;1.80;;